sensor_id;sensor_type;location;lat;lon;timestamp;P1;durP1;ratioP1;P2;durP2;ratioP2
74459;SDS011;62902;48.854;9.292;2023-01-23T00:00:41;857.63;;;749.15;;
74459;SDS011;62902;48.854;9.292;2023-01-23T00:03:14;855.00;;;747.90;;
74459;SDS011;62902;48.854;9.292;2023-01-23T00:05:41;856.50;;;751.40;;
74459;SDS011;62902;48.854;9.292;2023-01-23T00:08:08;853.87;;;745.27;;
74459;SDS011;62902;48.854;9.292;2023-01-23T00:10:36;855.42;;;749.92;;
74459;SDS011;62902;48.854;9.292;2023-01-23T00:13:03;853.08;;;744.63;;
74459;SDS011;62902;48.854;9.292;2023-01-23T00:15:30;855.63;;;745.95;;
74459;SDS011;62902;48.854;9.292;2023-01-23T00:17:58;856.10;;;746.20;;
74459;SDS011;62902;48.854;9.292;2023-01-23T00:20:25;859.97;;;749.78;;
74459;SDS011;62902;48.854;9.292;2023-01-23T00:22:51;857.90;;;750.83;;
74459;SDS011;62902;48.854;9.292;2023-01-23T00:25:18;855.55;;;744.80;;
74459;SDS011;62902;48.854;9.292;2023-01-23T00:27:44;860.97;;;747.17;;
74459;SDS011;62902;48.854;9.292;2023-01-23T00:30:11;858.90;;;747.17;;
74459;SDS011;62902;48.854;9.292;2023-01-23T00:32:39;862.08;;;752.95;;
74459;SDS011;62902;48.854;9.292;2023-01-23T00:35:05;859.67;;;749.33;;
74459;SDS011;62902;48.854;9.292;2023-01-23T00:37:32;856.95;;;748.95;;
74459;SDS011;62902;48.854;9.292;2023-01-23T00:39:59;856.93;;;745.90;;
74459;SDS011;62902;48.854;9.292;2023-01-23T00:42:25;854.55;;;737.60;;
74459;SDS011;62902;48.854;9.292;2023-01-23T00:44:52;856.92;;;743.10;;
74459;SDS011;62902;48.854;9.292;2023-01-23T00:47:18;854.97;;;741.70;;
74459;SDS011;62902;48.854;9.292;2023-01-23T00:49:46;855.72;;;739.13;;
74459;SDS011;62902;48.854;9.292;2023-01-23T00:52:13;852.63;;;734.40;;
74459;SDS011;62902;48.854;9.292;2023-01-23T00:54:40;853.37;;;731.20;;
74459;SDS011;62902;48.854;9.292;2023-01-23T00:57:06;852.25;;;728.60;;
74459;SDS011;62902;48.854;9.292;2023-01-23T00:59:33;852.08;;;727.00;;
74459;SDS011;62902;48.854;9.292;2023-01-23T01:02:00;853.28;;;730.95;;
74459;SDS011;62902;48.854;9.292;2023-01-23T01:04:26;852.75;;;726.75;;
74459;SDS011;62902;48.854;9.292;2023-01-23T01:06:53;852.10;;;722.13;;
74459;SDS011;62902;48.854;9.292;2023-01-23T01:09:21;856.67;;;732.38;;
74459;SDS011;62902;48.854;9.292;2023-01-23T01:11:47;853.03;;;727.92;;
74459;SDS011;62902;48.854;9.292;2023-01-23T01:14:14;857.83;;;737.45;;
74459;SDS011;62902;48.854;9.292;2023-01-23T01:16:41;855.23;;;730.83;;
74459;SDS011;62902;48.854;9.292;2023-01-23T01:19:13;856.53;;;739.22;;
74459;SDS011;62902;48.854;9.292;2023-01-23T01:21:41;855.95;;;735.75;;
74459;SDS011;62902;48.854;9.292;2023-01-23T01:24:09;849.83;;;731.17;;
74459;SDS011;62902;48.854;9.292;2023-01-23T01:26:36;852.00;;;735.45;;
74459;SDS011;62902;48.854;9.292;2023-01-23T01:29:03;853.47;;;735.35;;
74459;SDS011;62902;48.854;9.292;2023-01-23T01:31:32;854.77;;;735.37;;
74459;SDS011;62902;48.854;9.292;2023-01-23T01:34:00;858.83;;;739.80;;
74459;SDS011;62902;48.854;9.292;2023-01-23T01:36:26;858.80;;;736.92;;
74459;SDS011;62902;48.854;9.292;2023-01-23T01:38:53;859.78;;;733.95;;
74459;SDS011;62902;48.854;9.292;2023-01-23T01:41:19;862.78;;;731.65;;
74459;SDS011;62902;48.854;9.292;2023-01-23T01:43:46;867.92;;;737.75;;
74459;SDS011;62902;48.854;9.292;2023-01-23T01:46:23;860.80;;;730.33;;
74459;SDS011;62902;48.854;9.292;2023-01-23T01:51:52;864.47;;;740.40;;
74459;SDS011;62902;48.854;9.292;2023-01-23T01:54:32;865.63;;;742.38;;
74459;SDS011;62902;48.854;9.292;2023-01-23T01:59:53;864.03;;;743.67;;
74459;SDS011;62902;48.854;9.292;2023-01-23T02:02:26;859.83;;;739.47;;
74459;SDS011;62902;48.854;9.292;2023-01-23T02:05:11;861.67;;;740.67;;
74459;SDS011;62902;48.854;9.292;2023-01-23T02:07:45;864.40;;;741.00;;
74459;SDS011;62902;48.854;9.292;2023-01-23T02:10:12;866.03;;;742.13;;
74459;SDS011;62902;48.854;9.292;2023-01-23T02:12:48;866.80;;;743.60;;
74459;SDS011;62902;48.854;9.292;2023-01-23T02:15:16;866.47;;;740.95;;
74459;SDS011;62902;48.854;9.292;2023-01-23T02:17:44;869.30;;;741.92;;
74459;SDS011;62902;48.854;9.292;2023-01-23T02:20:20;864.23;;;737.40;;
74459;SDS011;62902;48.854;9.292;2023-01-23T02:28:14;864.90;;;734.70;;
74459;SDS011;62902;48.854;9.292;2023-01-23T02:30:43;867.58;;;737.42;;
74459;SDS011;62902;48.854;9.292;2023-01-23T02:35:45;865.40;;;735.03;;
74459;SDS011;62902;48.854;9.292;2023-01-23T02:38:13;867.08;;;735.10;;
74459;SDS011;62902;48.854;9.292;2023-01-23T02:40:40;865.30;;;733.27;;
74459;SDS011;62902;48.854;9.292;2023-01-23T02:43:12;863.53;;;734.20;;
74459;SDS011;62902;48.854;9.292;2023-01-23T02:45:47;867.08;;;738.05;;
74459;SDS011;62902;48.854;9.292;2023-01-23T02:48:14;863.38;;;733.78;;
74459;SDS011;62902;48.854;9.292;2023-01-23T02:50:41;867.40;;;738.35;;
74459;SDS011;62902;48.854;9.292;2023-01-23T02:53:10;863.80;;;723.67;;
74459;SDS011;62902;48.854;9.292;2023-01-23T02:55:36;866.95;;;728.35;;
74459;SDS011;62902;48.854;9.292;2023-01-23T02:58:08;860.28;;;719.63;;
74459;SDS011;62902;48.854;9.292;2023-01-23T03:00:54;868.03;;;728.27;;
74459;SDS011;62902;48.854;9.292;2023-01-23T03:03:21;865.50;;;726.10;;
74459;SDS011;62902;48.854;9.292;2023-01-23T03:05:48;864.42;;;725.97;;
74459;SDS011;62902;48.854;9.292;2023-01-23T03:08:15;865.85;;;727.47;;
74459;SDS011;62902;48.854;9.292;2023-01-23T03:10:42;867.50;;;728.97;;
74459;SDS011;62902;48.854;9.292;2023-01-23T03:13:09;866.08;;;730.10;;
74459;SDS011;62902;48.854;9.292;2023-01-23T03:15:37;870.78;;;733.80;;
74459;SDS011;62902;48.854;9.292;2023-01-23T03:18:04;868.78;;;733.17;;
74459;SDS011;62902;48.854;9.292;2023-01-23T03:20:38;871.70;;;736.20;;
74459;SDS011;62902;48.854;9.292;2023-01-23T03:23:05;868.40;;;734.47;;
74459;SDS011;62902;48.854;9.292;2023-01-23T03:25:31;870.20;;;737.30;;
74459;SDS011;62902;48.854;9.292;2023-01-23T03:27:58;870.85;;;741.67;;
74459;SDS011;62902;48.854;9.292;2023-01-23T03:30:25;868.83;;;741.37;;
74459;SDS011;62902;48.854;9.292;2023-01-23T03:32:51;865.72;;;736.50;;
74459;SDS011;62902;48.854;9.292;2023-01-23T03:35:18;861.03;;;736.73;;
74459;SDS011;62902;48.854;9.292;2023-01-23T03:37:47;861.72;;;738.50;;
74459;SDS011;62902;48.854;9.292;2023-01-23T03:40:18;864.05;;;743.47;;
74459;SDS011;62902;48.854;9.292;2023-01-23T03:43:07;856.70;;;735.07;;
74459;SDS011;62902;48.854;9.292;2023-01-23T03:45:39;858.43;;;736.50;;
74459;SDS011;62902;48.854;9.292;2023-01-23T03:48:06;861.45;;;741.75;;
74459;SDS011;62902;48.854;9.292;2023-01-23T03:50:34;861.58;;;742.97;;
74459;SDS011;62902;48.854;9.292;2023-01-23T03:53:01;860.15;;;742.40;;
74459;SDS011;62902;48.854;9.292;2023-01-23T03:55:30;854.15;;;736.10;;
74459;SDS011;62902;48.854;9.292;2023-01-23T03:57:56;855.95;;;740.83;;
74459;SDS011;62902;48.854;9.292;2023-01-23T04:00:26;862.80;;;750.30;;
74459;SDS011;62902;48.854;9.292;2023-01-23T04:02:58;854.17;;;740.47;;
74459;SDS011;62902;48.854;9.292;2023-01-23T04:05:24;853.17;;;742.67;;
74459;SDS011;62902;48.854;9.292;2023-01-23T04:07:51;851.95;;;736.60;;
74459;SDS011;62902;48.854;9.292;2023-01-23T04:10:17;848.55;;;732.90;;
74459;SDS011;62902;48.854;9.292;2023-01-23T04:12:50;853.50;;;738.58;;
74459;SDS011;62902;48.854;9.292;2023-01-23T04:15:16;852.00;;;735.83;;
74459;SDS011;62902;48.854;9.292;2023-01-23T04:17:44;852.83;;;736.30;;
74459;SDS011;62902;48.854;9.292;2023-01-23T04:20:11;853.30;;;737.08;;
74459;SDS011;62902;48.854;9.292;2023-01-23T04:22:40;858.78;;;739.42;;
74459;SDS011;62902;48.854;9.292;2023-01-23T04:25:08;860.95;;;734.45;;
74459;SDS011;62902;48.854;9.292;2023-01-23T04:27:35;857.93;;;733.97;;
74459;SDS011;62902;48.854;9.292;2023-01-23T04:30:02;863.22;;;738.28;;
74459;SDS011;62902;48.854;9.292;2023-01-23T04:32:29;866.22;;;737.35;;
74459;SDS011;62902;48.854;9.292;2023-01-23T04:34:59;867.47;;;734.13;;
74459;SDS011;62902;48.854;9.292;2023-01-23T04:37:28;870.33;;;734.83;;
74459;SDS011;62902;48.854;9.292;2023-01-23T04:39:55;869.92;;;736.65;;
74459;SDS011;62902;48.854;9.292;2023-01-23T04:42:22;870.88;;;738.30;;
74459;SDS011;62902;48.854;9.292;2023-01-23T04:45:06;871.08;;;742.08;;
74459;SDS011;62902;48.854;9.292;2023-01-23T04:48:00;867.47;;;737.30;;
74459;SDS011;62902;48.854;9.292;2023-01-23T04:50:28;868.72;;;736.90;;
74459;SDS011;62902;48.854;9.292;2023-01-23T04:52:54;871.13;;;738.85;;
74459;SDS011;62902;48.854;9.292;2023-01-23T04:55:23;873.70;;;740.05;;
74459;SDS011;62902;48.854;9.292;2023-01-23T04:57:50;873.67;;;739.40;;
74459;SDS011;62902;48.854;9.292;2023-01-23T05:00:23;871.92;;;737.40;;
74459;SDS011;62902;48.854;9.292;2023-01-23T05:02:50;868.95;;;735.05;;
74459;SDS011;62902;48.854;9.292;2023-01-23T05:05:17;873.53;;;741.95;;
74459;SDS011;62902;48.854;9.292;2023-01-23T05:07:49;870.27;;;741.07;;
74459;SDS011;62902;48.854;9.292;2023-01-23T05:10:16;869.08;;;739.55;;
74459;SDS011;62902;48.854;9.292;2023-01-23T05:12:43;867.28;;;738.75;;
74459;SDS011;62902;48.854;9.292;2023-01-23T05:15:10;860.92;;;732.63;;
74459;SDS011;62902;48.854;9.292;2023-01-23T05:17:39;865.58;;;738.65;;
74459;SDS011;62902;48.854;9.292;2023-01-23T05:20:06;861.85;;;734.05;;
74459;SDS011;62902;48.854;9.292;2023-01-23T05:22:35;862.13;;;739.30;;
74459;SDS011;62902;48.854;9.292;2023-01-23T05:25:02;859.47;;;734.28;;
74459;SDS011;62902;48.854;9.292;2023-01-23T05:27:29;851.03;;;728.17;;
74459;SDS011;62902;48.854;9.292;2023-01-23T05:29:57;863.67;;;742.13;;
74459;SDS011;62902;48.854;9.292;2023-01-23T05:32:27;858.90;;;737.10;;
74459;SDS011;62902;48.854;9.292;2023-01-23T05:35:06;859.05;;;740.65;;
74459;SDS011;62902;48.854;9.292;2023-01-23T05:37:35;855.95;;;738.50;;
74459;SDS011;62902;48.854;9.292;2023-01-23T05:40:04;855.40;;;737.00;;
74459;SDS011;62902;48.854;9.292;2023-01-23T05:42:52;855.70;;;740.33;;
74459;SDS011;62902;48.854;9.292;2023-01-23T05:45:41;855.13;;;749.05;;
74459;SDS011;62902;48.854;9.292;2023-01-23T05:48:17;850.88;;;748.38;;
74459;SDS011;62902;48.854;9.292;2023-01-23T05:50:44;852.50;;;750.10;;
74459;SDS011;62902;48.854;9.292;2023-01-23T05:53:10;845.35;;;741.42;;
74459;SDS011;62902;48.854;9.292;2023-01-23T05:55:37;852.35;;;751.55;;
74459;SDS011;62902;48.854;9.292;2023-01-23T05:58:04;850.03;;;748.47;;
74459;SDS011;62902;48.854;9.292;2023-01-23T06:00:34;851.30;;;748.33;;
74459;SDS011;62902;48.854;9.292;2023-01-23T06:03:33;854.72;;;745.53;;
74459;SDS011;62902;48.854;9.292;2023-01-23T06:06:14;855.58;;;748.08;;
74459;SDS011;62902;48.854;9.292;2023-01-23T06:08:41;855.03;;;747.47;;
74459;SDS011;62902;48.854;9.292;2023-01-23T06:11:08;856.28;;;747.55;;
74459;SDS011;62902;48.854;9.292;2023-01-23T06:13:34;858.20;;;748.25;;
74459;SDS011;62902;48.854;9.292;2023-01-23T06:16:01;863.95;;;753.55;;
74459;SDS011;62902;48.854;9.292;2023-01-23T06:18:28;861.53;;;748.15;;
74459;SDS011;62902;48.854;9.292;2023-01-23T06:20:56;863.67;;;752.30;;
74459;SDS011;62902;48.854;9.292;2023-01-23T06:23:26;864.08;;;750.30;;
74459;SDS011;62902;48.854;9.292;2023-01-23T06:26:00;860.53;;;743.42;;
74459;SDS011;62902;48.854;9.292;2023-01-23T06:28:27;864.70;;;748.33;;
74459;SDS011;62902;48.854;9.292;2023-01-23T06:30:58;862.47;;;742.37;;
74459;SDS011;62902;48.854;9.292;2023-01-23T06:33:35;866.17;;;749.75;;
74459;SDS011;62902;48.854;9.292;2023-01-23T06:36:07;865.17;;;750.13;;
74459;SDS011;62902;48.854;9.292;2023-01-23T06:38:34;866.25;;;752.80;;
74459;SDS011;62902;48.854;9.292;2023-01-23T06:41:08;867.15;;;751.95;;
74459;SDS011;62902;48.854;9.292;2023-01-23T06:43:42;863.53;;;747.42;;
74459;SDS011;62902;48.854;9.292;2023-01-23T06:46:15;862.40;;;748.58;;
74459;SDS011;62902;48.854;9.292;2023-01-23T06:48:41;862.10;;;748.10;;
74459;SDS011;62902;48.854;9.292;2023-01-23T06:51:08;860.28;;;749.08;;
74459;SDS011;62902;48.854;9.292;2023-01-23T06:53:36;863.35;;;751.13;;
74459;SDS011;62902;48.854;9.292;2023-01-23T06:56:04;860.13;;;744.50;;
74459;SDS011;62902;48.854;9.292;2023-01-23T06:58:34;861.22;;;747.35;;
74459;SDS011;62902;48.854;9.292;2023-01-23T07:01:08;866.15;;;748.30;;
74459;SDS011;62902;48.854;9.292;2023-01-23T07:04:10;868.83;;;753.10;;
74459;SDS011;62902;48.854;9.292;2023-01-23T07:06:38;868.40;;;748.78;;
74459;SDS011;62902;48.854;9.292;2023-01-23T07:09:05;866.97;;;743.70;;
74459;SDS011;62902;48.854;9.292;2023-01-23T07:11:32;871.80;;;746.57;;
74459;SDS011;62902;48.854;9.292;2023-01-23T07:13:59;870.93;;;747.80;;
74459;SDS011;62902;48.854;9.292;2023-01-23T07:16:27;873.83;;;750.40;;
74459;SDS011;62902;48.854;9.292;2023-01-23T07:18:55;876.55;;;752.22;;
74459;SDS011;62902;48.854;9.292;2023-01-23T07:21:24;873.40;;;746.42;;
74459;SDS011;62902;48.854;9.292;2023-01-23T07:23:50;875.55;;;751.00;;
74459;SDS011;62902;48.854;9.292;2023-01-23T07:26:17;874.53;;;749.80;;
74459;SDS011;62902;48.854;9.292;2023-01-23T07:28:44;874.53;;;750.65;;
74459;SDS011;62902;48.854;9.292;2023-01-23T07:31:10;873.47;;;748.17;;
74459;SDS011;62902;48.854;9.292;2023-01-23T07:33:38;875.70;;;747.88;;
74459;SDS011;62902;48.854;9.292;2023-01-23T07:36:05;871.90;;;746.90;;
74459;SDS011;62902;48.854;9.292;2023-01-23T07:38:32;876.60;;;745.72;;
74459;SDS011;62902;48.854;9.292;2023-01-23T07:41:00;873.63;;;750.33;;
74459;SDS011;62902;48.854;9.292;2023-01-23T07:43:27;869.90;;;745.05;;
74459;SDS011;62902;48.854;9.292;2023-01-23T07:45:54;868.78;;;749.97;;
74459;SDS011;62902;48.854;9.292;2023-01-23T07:48:23;864.93;;;749.13;;
74459;SDS011;62902;48.854;9.292;2023-01-23T07:50:51;865.13;;;746.88;;
74459;SDS011;62902;48.854;9.292;2023-01-23T07:53:17;863.42;;;746.95;;
74459;SDS011;62902;48.854;9.292;2023-01-23T07:55:44;866.03;;;750.77;;
74459;SDS011;62902;48.854;9.292;2023-01-23T07:58:11;864.10;;;751.80;;
74459;SDS011;62902;48.854;9.292;2023-01-23T08:00:37;863.30;;;748.35;;
74459;SDS011;62902;48.854;9.292;2023-01-23T08:03:04;864.72;;;746.15;;
74459;SDS011;62902;48.854;9.292;2023-01-23T08:05:31;865.05;;;747.08;;
74459;SDS011;62902;48.854;9.292;2023-01-23T08:07:57;865.90;;;748.53;;
74459;SDS011;62902;48.854;9.292;2023-01-23T08:10:39;866.75;;;748.60;;
74459;SDS011;62902;48.854;9.292;2023-01-23T08:13:09;863.97;;;748.60;;
74459;SDS011;62902;48.854;9.292;2023-01-23T08:15:36;866.55;;;753.30;;
74459;SDS011;62902;48.854;9.292;2023-01-23T08:18:03;864.20;;;748.93;;
74459;SDS011;62902;48.854;9.292;2023-01-23T08:20:30;862.30;;;752.60;;
74459;SDS011;62902;48.854;9.292;2023-01-23T08:22:57;864.33;;;757.25;;
74459;SDS011;62902;48.854;9.292;2023-01-23T08:25:24;860.45;;;746.90;;
74459;SDS011;62902;48.854;9.292;2023-01-23T08:27:51;859.58;;;753.75;;
74459;SDS011;62902;48.854;9.292;2023-01-23T08:30:18;859.28;;;753.63;;
74459;SDS011;62902;48.854;9.292;2023-01-23T08:32:45;858.85;;;747.40;;
74459;SDS011;62902;48.854;9.292;2023-01-23T08:35:12;860.63;;;749.30;;
74459;SDS011;62902;48.854;9.292;2023-01-23T08:37:38;861.47;;;749.15;;
74459;SDS011;62902;48.854;9.292;2023-01-23T08:40:07;861.53;;;751.10;;
74459;SDS011;62902;48.854;9.292;2023-01-23T08:42:34;860.38;;;752.25;;
74459;SDS011;62902;48.854;9.292;2023-01-23T08:45:01;857.90;;;750.20;;
74459;SDS011;62902;48.854;9.292;2023-01-23T08:47:27;860.72;;;751.03;;
74459;SDS011;62902;48.854;9.292;2023-01-23T08:49:54;857.53;;;747.60;;
74459;SDS011;62902;48.854;9.292;2023-01-23T08:52:21;855.30;;;747.45;;
74459;SDS011;62902;48.854;9.292;2023-01-23T08:54:48;860.27;;;750.20;;
74459;SDS011;62902;48.854;9.292;2023-01-23T08:57:14;861.90;;;748.80;;
74459;SDS011;62902;48.854;9.292;2023-01-23T08:59:41;863.47;;;747.80;;
74459;SDS011;62902;48.854;9.292;2023-01-23T09:02:12;865.40;;;746.30;;
74459;SDS011;62902;48.854;9.292;2023-01-23T09:04:39;870.25;;;749.03;;
74459;SDS011;62902;48.854;9.292;2023-01-23T09:07:06;874.00;;;750.97;;
74459;SDS011;62902;48.854;9.292;2023-01-23T09:09:32;874.85;;;751.60;;
74459;SDS011;62902;48.854;9.292;2023-01-23T09:11:59;873.50;;;747.53;;
74459;SDS011;62902;48.854;9.292;2023-01-23T09:14:26;870.60;;;741.23;;
74459;SDS011;62902;48.854;9.292;2023-01-23T09:16:52;879.03;;;746.70;;
74459;SDS011;62902;48.854;9.292;2023-01-23T09:19:19;873.08;;;737.38;;
74459;SDS011;62902;48.854;9.292;2023-01-23T09:21:46;876.85;;;752.05;;
74459;SDS011;62902;48.854;9.292;2023-01-23T09:24:12;869.55;;;738.72;;
74459;SDS011;62902;48.854;9.292;2023-01-23T09:26:39;875.20;;;742.20;;
74459;SDS011;62902;48.854;9.292;2023-01-23T09:29:06;874.20;;;740.33;;
74459;SDS011;62902;48.854;9.292;2023-01-23T09:31:40;872.05;;;741.38;;
74459;SDS011;62902;48.854;9.292;2023-01-23T09:34:07;868.28;;;737.63;;
74459;SDS011;62902;48.854;9.292;2023-01-23T09:36:34;875.27;;;742.43;;
74459;SDS011;62902;48.854;9.292;2023-01-23T09:39:08;879.03;;;740.25;;
74459;SDS011;62902;48.854;9.292;2023-01-23T09:41:36;883.07;;;742.67;;
74459;SDS011;62902;48.854;9.292;2023-01-23T09:44:05;879.83;;;743.03;;
74459;SDS011;62902;48.854;9.292;2023-01-23T09:46:42;880.58;;;745.03;;
74459;SDS011;62902;48.854;9.292;2023-01-23T09:49:20;877.00;;;741.08;;
74459;SDS011;62902;48.854;9.292;2023-01-23T09:51:55;876.08;;;742.95;;
74459;SDS011;62902;48.854;9.292;2023-01-23T09:57:04;873.73;;;740.37;;
74459;SDS011;62902;48.854;9.292;2023-01-23T09:59:51;878.60;;;749.67;;
74459;SDS011;62902;48.854;9.292;2023-01-23T10:02:26;874.40;;;743.23;;
74459;SDS011;62902;48.854;9.292;2023-01-23T10:04:53;872.17;;;741.22;;
74459;SDS011;62902;48.854;9.292;2023-01-23T10:07:30;877.80;;;743.83;;
74459;SDS011;62902;48.854;9.292;2023-01-23T10:12:49;886.33;;;749.10;;
74459;SDS011;62902;48.854;9.292;2023-01-23T10:15:30;887.58;;;750.08;;
74459;SDS011;62902;48.854;9.292;2023-01-23T10:26:17;887.13;;;740.58;;
74459;SDS011;62902;48.854;9.292;2023-01-23T10:28:46;892.57;;;754.13;;
74459;SDS011;62902;48.854;9.292;2023-01-23T10:31:22;899.42;;;752.63;;
74459;SDS011;62902;48.854;9.292;2023-01-23T10:33:57;905.10;;;755.60;;
74459;SDS011;62902;48.854;9.292;2023-01-23T10:36:35;910.15;;;757.80;;
74459;SDS011;62902;48.854;9.292;2023-01-23T10:39:21;903.00;;;759.60;;
74459;SDS011;62902;48.854;9.292;2023-01-23T10:41:52;903.00;;;759.70;;
74459;SDS011;62902;48.854;9.292;2023-01-23T10:46:55;940.80;;;774.50;;
74459;SDS011;62902;48.854;9.292;2023-01-23T10:49:29;967.30;;;808.10;;
74459;SDS011;62902;48.854;9.292;2023-01-23T10:52:00;943.25;;;782.70;;
74459;SDS011;62902;48.854;9.292;2023-01-23T10:54:28;953.55;;;784.20;;
74459;SDS011;62902;48.854;9.292;2023-01-23T11:12:20;919.25;;;762.85;;
74459;SDS011;62902;48.854;9.292;2023-01-23T11:17:48;923.07;;;767.17;;
74459;SDS011;62902;48.854;9.292;2023-01-23T11:33:35;906.75;;;763.85;;
74459;SDS011;62902;48.854;9.292;2023-01-23T11:38:43;905.25;;;768.70;;
74459;SDS011;62902;48.854;9.292;2023-01-23T11:43:44;900.15;;;769.20;;
74459;SDS011;62902;48.854;9.292;2023-01-23T11:48:46;902.13;;;768.97;;
74459;SDS011;62902;48.854;9.292;2023-01-23T11:51:23;904.60;;;762.60;;
74459;SDS011;62902;48.854;9.292;2023-01-23T11:54:21;908.80;;;760.30;;
74459;SDS011;62902;48.854;9.292;2023-01-23T11:57:35;912.65;;;765.88;;
74459;SDS011;62902;48.854;9.292;2023-01-23T12:05:42;911.88;;;757.55;;
74459;SDS011;62902;48.854;9.292;2023-01-23T12:11:13;927.95;;;754.60;;
74459;SDS011;62902;48.854;9.292;2023-01-23T12:16:32;942.67;;;761.05;;
74459;SDS011;62902;48.854;9.292;2023-01-23T12:19:20;936.17;;;760.50;;
74459;SDS011;62902;48.854;9.292;2023-01-23T12:22:06;932.60;;;762.35;;
74459;SDS011;62902;48.854;9.292;2023-01-23T12:27:40;930.75;;;757.78;;
74459;SDS011;62902;48.854;9.292;2023-01-23T12:35:55;922.47;;;759.63;;
74459;SDS011;62902;48.854;9.292;2023-01-23T12:38:30;927.33;;;759.72;;
74459;SDS011;62902;48.854;9.292;2023-01-23T12:41:12;928.50;;;758.05;;
74459;SDS011;62902;48.854;9.292;2023-01-23T12:43:49;929.63;;;757.28;;
74459;SDS011;62902;48.854;9.292;2023-01-23T12:49:18;928.75;;;750.10;;
74459;SDS011;62902;48.854;9.292;2023-01-23T12:51:51;929.35;;;756.08;;
74459;SDS011;62902;48.854;9.292;2023-01-23T12:54:26;933.70;;;760.20;;
74459;SDS011;62902;48.854;9.292;2023-01-23T12:56:57;933.38;;;758.88;;
74459;SDS011;62902;48.854;9.292;2023-01-23T12:59:26;936.33;;;762.20;;
74459;SDS011;62902;48.854;9.292;2023-01-23T13:02:22;931.90;;;758.15;;
74459;SDS011;62902;48.854;9.292;2023-01-23T13:04:59;932.05;;;760.45;;
74459;SDS011;62902;48.854;9.292;2023-01-23T13:07:44;935.00;;;764.00;;
74459;SDS011;62902;48.854;9.292;2023-01-23T13:13:34;940.47;;;759.77;;
74459;SDS011;62902;48.854;9.292;2023-01-23T13:16:02;938.15;;;756.40;;
74459;SDS011;62902;48.854;9.292;2023-01-23T13:18:34;930.65;;;751.75;;
74459;SDS011;62902;48.854;9.292;2023-01-23T13:21:23;939.90;;;757.50;;
74459;SDS011;62902;48.854;9.292;2023-01-23T13:32:26;990.00;;;800.90;;
74459;SDS011;62902;48.854;9.292;2023-01-23T13:34:54;991.30;;;800.10;;
74459;SDS011;62902;48.854;9.292;2023-01-23T13:42:44;990.80;;;802.70;;
74459;SDS011;62902;48.854;9.292;2023-01-23T13:45:27;985.40;;;805.70;;
74459;SDS011;62902;48.854;9.292;2023-01-23T13:51:15;977.30;;;803.40;;
74459;SDS011;62902;48.854;9.292;2023-01-23T13:57:07;967.20;;;801.90;;
74459;SDS011;62902;48.854;9.292;2023-01-23T13:59:49;966.50;;;802.30;;
74459;SDS011;62902;48.854;9.292;2023-01-23T14:02:37;969.70;;;803.70;;
74459;SDS011;62902;48.854;9.292;2023-01-23T14:05:38;979.40;;;805.80;;
74459;SDS011;62902;48.854;9.292;2023-01-23T14:08:22;978.40;;;795.85;;
74459;SDS011;62902;48.854;9.292;2023-01-23T14:16:51;986.50;;;795.20;;
74459;SDS011;62902;48.854;9.292;2023-01-23T14:27:14;975.65;;;795.85;;
74459;SDS011;62902;48.854;9.292;2023-01-23T14:34:54;955.30;;;795.80;;
74459;SDS011;62902;48.854;9.292;2023-01-23T14:37:21;956.10;;;793.80;;
74459;SDS011;62902;48.854;9.292;2023-01-23T14:42:22;951.50;;;793.60;;
74459;SDS011;62902;48.854;9.292;2023-01-23T14:54:48;948.70;;;790.90;;
74459;SDS011;62902;48.854;9.292;2023-01-23T14:57:19;949.50;;;799.20;;
74459;SDS011;62902;48.854;9.292;2023-01-23T15:02:23;956.90;;;796.00;;
74459;SDS011;62902;48.854;9.292;2023-01-23T15:17:52;951.90;;;793.00;;
74459;SDS011;62902;48.854;9.292;2023-01-23T15:23:10;952.50;;;792.40;;
74459;SDS011;62902;48.854;9.292;2023-01-23T15:25:39;952.70;;;792.00;;
74459;SDS011;62902;48.854;9.292;2023-01-23T15:38:26;948.00;;;797.30;;
74459;SDS011;62902;48.854;9.292;2023-01-23T15:40:52;956.80;;;796.90;;
74459;SDS011;62902;48.854;9.292;2023-01-23T15:53:09;950.80;;;800.00;;
74459;SDS011;62902;48.854;9.292;2023-01-23T16:02:58;951.50;;;797.40;;
74459;SDS011;62902;48.854;9.292;2023-01-23T16:07:52;948.90;;;795.60;;
74459;SDS011;62902;48.854;9.292;2023-01-23T16:12:48;943.10;;;800.60;;
74459;SDS011;62902;48.854;9.292;2023-01-23T16:22:39;949.20;;;801.20;;
74459;SDS011;62902;48.854;9.292;2023-01-23T16:27:40;949.20;;;794.80;;
74459;SDS011;62902;48.854;9.292;2023-01-23T16:30:09;945.05;;;795.05;;
74459;SDS011;62902;48.854;9.292;2023-01-23T16:32:41;946.20;;;798.60;;
74459;SDS011;62902;48.854;9.292;2023-01-23T16:44:56;938.30;;;800.80;;
74459;SDS011;62902;48.854;9.292;2023-01-23T16:47:23;935.30;;;798.70;;
74459;SDS011;62902;48.854;9.292;2023-01-23T17:02:21;940.00;;;797.50;;
74459;SDS011;62902;48.854;9.292;2023-01-23T17:04:52;940.10;;;798.50;;
74459;SDS011;62902;48.854;9.292;2023-01-23T17:14:43;943.60;;;803.00;;
74459;SDS011;62902;48.854;9.292;2023-01-23T17:17:13;941.70;;;803.70;;
74459;SDS011;62902;48.854;9.292;2023-01-23T17:19:41;950.80;;;803.80;;
74459;SDS011;62902;48.854;9.292;2023-01-23T17:24:43;949.70;;;803.30;;
74459;SDS011;62902;48.854;9.292;2023-01-23T17:32:02;956.80;;;803.90;;
74459;SDS011;62902;48.854;9.292;2023-01-23T17:34:31;955.25;;;804.35;;
74459;SDS011;62902;48.854;9.292;2023-01-23T17:37:16;957.10;;;803.00;;
74459;SDS011;62902;48.854;9.292;2023-01-23T17:47:08;953.75;;;798.05;;
74459;SDS011;62902;48.854;9.292;2023-01-23T17:52:05;943.80;;;795.10;;
74459;SDS011;62902;48.854;9.292;2023-01-23T17:56:58;941.60;;;796.00;;
74459;SDS011;62902;48.854;9.292;2023-01-23T18:06:46;951.20;;;796.30;;
74459;SDS011;62902;48.854;9.292;2023-01-23T18:16:56;947.50;;;793.90;;
74459;SDS011;62902;48.854;9.292;2023-01-23T19:06:40;951.80;;;806.90;;
74459;SDS011;62902;48.854;9.292;2023-01-23T19:09:17;949.00;;;808.50;;
74459;SDS011;62902;48.854;9.292;2023-01-23T19:12:00;942.90;;;802.30;;
74459;SDS011;62902;48.854;9.292;2023-01-23T19:19:51;940.90;;;805.70;;
74459;SDS011;62902;48.854;9.292;2023-01-23T19:22:26;941.05;;;802.70;;
74459;SDS011;62902;48.854;9.292;2023-01-23T19:34:53;942.20;;;784.00;;
74459;SDS011;62902;48.854;9.292;2023-01-23T19:44:43;943.20;;;784.55;;
74459;SDS011;62902;48.854;9.292;2023-01-23T19:47:10;949.40;;;787.00;;
74459;SDS011;62902;48.854;9.292;2023-01-23T20:01:50;967.40;;;807.80;;
74459;SDS011;62902;48.854;9.292;2023-01-23T20:04:19;972.20;;;810.30;;
74459;SDS011;62902;48.854;9.292;2023-01-23T20:06:47;971.10;;;809.50;;
74459;SDS011;62902;48.854;9.292;2023-01-23T20:14:10;969.80;;;813.10;;